createdAt,value
2022-08-10T00:02:38.125Z,102091.78
2022-08-10T00:05:26.133Z,102083.81
2022-08-10T00:08:18.318Z,102085.66
2022-08-10T00:11:16.806Z,102069.59
2022-08-10T00:14:04.176Z,102076.03
2022-08-10T00:16:51.345Z,102073.31
2022-08-10T00:20:03.829Z,102066.31
2022-08-10T00:22:48.844Z,102058.22
2022-08-10T00:25:44.349Z,102051.38
2022-08-10T00:28:31.736Z,102060.16
2022-08-10T00:31:19.068Z,102054.75
2022-08-10T00:34:06.295Z,102063.72
2022-08-10T00:36:53.211Z,102069.22
2022-08-10T00:39:40.341Z,102060.25
2022-08-10T00:42:28.981Z,102065.63
2022-08-10T00:45:16.153Z,102062.94
2022-08-10T00:48:03.125Z,102061.22
2022-08-10T00:50:50.621Z,102047.25
2022-08-10T00:53:37.708Z,102039.75
2022-08-10T00:57:12.634Z,102046.88
2022-08-10T00:59:34.350Z,102049.56
2022-08-10T01:02:22.094Z,102031.28
2022-08-10T01:05:09.330Z,102032.63
2022-08-10T01:08:09.077Z,102025.41
2022-08-10T01:11:03.576Z,102036.28
2022-08-10T01:14:17.698Z,102024.72
2022-08-10T01:17:16.929Z,102027.31
2022-08-10T01:20:30.749Z,102020.31
2022-08-10T01:23:26.941Z,102026.47
2022-08-10T01:26:40.513Z,102004.84
2022-08-10T01:29:54.225Z,102022.13
2022-08-10T01:32:52.908Z,102016.84
2022-08-10T01:35:54.993Z,102016.00
2022-08-10T01:38:49.747Z,102009.94
2022-08-10T01:41:46.618Z,101980.63
2022-08-10T01:44:41.008Z,102018.78
2022-08-10T01:47:30.061Z,102017.91
2022-08-10T01:50:23.387Z,102002.44
2022-08-10T01:53:13.283Z,102020.63
2022-08-10T01:56:01.690Z,102022.53
2022-08-10T01:58:51.131Z,102015.41
2022-08-10T02:01:42.281Z,102010.03
2022-08-10T02:04:33.578Z,102012.81
2022-08-10T02:07:22.630Z,102013.13
2022-08-10T02:10:13.507Z,102016.41
2022-08-10T02:13:03.445Z,101964.56
2022-08-10T02:16:01.406Z,101985.81
2022-08-10T02:18:50.623Z,102011.31
2022-08-10T02:21:38.246Z,102010.34
2022-08-10T02:24:47.803Z,102000.72
2022-08-10T02:27:36.137Z,101961.47
2022-08-10T02:30:25.606Z,101940.19
2022-08-10T02:33:13.222Z,102002.34
2022-08-10T02:36:06.981Z,102001.47
2022-08-10T02:39:00.701Z,102004.16
2022-08-10T02:45:02.061Z,102004.16
2022-08-10T02:45:29.935Z,101990.91
2022-08-10T02:48:26.672Z,101963.44
2022-08-10T02:52:06.321Z,101952.97
2022-08-10T02:54:39.553Z,101990.78
2022-08-10T02:57:31.138Z,101996.09
2022-08-10T03:00:22.049Z,102002.44
2022-08-10T03:03:11.202Z,101999.84
2022-08-10T03:05:58.203Z,101996.28
2022-08-10T03:08:51.030Z,102009.75
2022-08-10T03:12:36.038Z,102001.66
2022-08-10T03:14:52.504Z,101984.38
2022-08-10T03:17:41.845Z,102001.78
2022-08-10T03:20:44.317Z,102001.78
2022-08-10T03:23:37.653Z,101999.94
2022-08-10T03:26:25.539Z,102001.66
2022-08-10T03:29:14.094Z,102002.56
2022-08-10T03:32:01.363Z,101981.50
2022-08-10T03:34:49.077Z,101990.91
2022-08-10T03:37:35.997Z,101987.56
2022-08-10T03:40:23.294Z,101985.59
2022-08-10T03:43:32.131Z,101984.56
2022-08-10T03:46:23.077Z,101979.19
2022-08-10T03:49:15.053Z,101984.56
2022-08-10T03:52:02.104Z,101988.09
2022-08-10T03:54:49.201Z,101986.47
2022-08-10T03:57:36.208Z,101989.94
2022-08-10T04:00:37.508Z,101971.19
2022-08-10T04:03:25.912Z,101969.44
2022-08-10T04:06:17.031Z,101975.72
2022-08-10T04:09:04.596Z,101967.63
2022-08-10T04:11:52.019Z,101970.31
2022-08-10T04:14:49.340Z,101964.81
2022-08-10T04:17:59.475Z,101958.38
2022-08-10T04:20:50.935Z,101952.22
2022-08-10T04:23:52.525Z,101952.88
2022-08-10T04:26:40.533Z,101965.00
2022-08-10T04:29:27.551Z,101958.72
2022-08-10T04:32:14.508Z,101921.25
2022-08-10T04:35:05.092Z,101960.03
2022-08-10T04:37:54.757Z,101963.50
2022-08-10T04:40:42.720Z,101960.63
2022-08-10T04:43:29.992Z,101956.00
2022-08-10T04:46:56.556Z,101957.16
2022-08-10T04:49:54.510Z,101953.81
2022-08-10T04:52:31.221Z,101969.94
2022-08-10T04:55:18.164Z,101969.06
2022-08-10T04:58:05.204Z,101971.56
2022-08-10T05:00:52.134Z,101972.44
2022-08-10T05:04:34.840Z,101951.44
2022-08-10T05:06:46.888Z,101966.94
2022-08-10T05:09:34.049Z,101970.38
2022-08-10T05:12:42.086Z,101974.84
2022-08-10T05:15:33.920Z,101947.69
2022-08-10T05:18:20.833Z,101970.19
2022-08-10T05:21:07.805Z,101966.34
2022-08-10T05:23:54.837Z,101974.34
2022-08-10T05:27:00.146Z,101955.88
2022-08-10T05:30:01.438Z,101978.84
2022-08-10T05:32:57.716Z,101966.25
2022-08-10T05:35:57.844Z,101968.84
2022-08-10T05:38:48.430Z,101971.34
2022-08-10T05:41:40.280Z,101960.53
2022-08-10T05:44:29.916Z,101975.44
2022-08-10T05:47:17.382Z,101951.78
2022-08-10T05:50:06.327Z,101954.72
2022-08-10T05:52:33.428Z,101962.97
2022-08-10T05:55:02.926Z,101925.28
2022-08-10T05:57:30.576Z,101958.88
2022-08-10T06:00:35.830Z,101943.66
2022-08-10T06:02:52.426Z,101944.75
2022-08-10T06:05:28.184Z,101950.69
2022-08-10T06:08:17.648Z,101946.81
2022-08-10T06:12:28.114Z,101946.03
2022-08-10T06:14:16.128Z,101951.66
2022-08-10T06:17:06.008Z,101947.03
2022-08-10T06:19:54.528Z,101930.72
2022-08-10T06:22:42.113Z,101927.06
2022-08-10T06:26:09.037Z,101959.00
2022-08-10T06:28:39.660Z,101950.06
2022-08-10T06:31:27.508Z,101952.34
2022-08-10T06:34:16.185Z,101958.06
2022-08-10T06:37:05.685Z,101955.78
2022-08-10T06:39:53.397Z,101958.19
2022-08-10T06:42:47.830Z,101954.19
2022-08-10T06:45:43.049Z,101944.78
2022-08-10T06:48:34.048Z,101943.47
2022-08-10T06:51:25.273Z,101933.09
2022-08-10T06:54:17.537Z,101942.59
2022-08-10T06:57:17.675Z,101935.78
2022-08-10T07:00:07.390Z,101929.03
2022-08-10T07:03:07.271Z,101917.44
2022-08-10T07:05:59.409Z,101915.81
2022-08-10T07:08:51.592Z,101919.41
2022-08-10T07:11:40.778Z,101913.19
2022-08-10T07:14:32.529Z,101899.59
2022-08-10T07:17:20.382Z,101914.69
2022-08-10T07:20:14.814Z,101925.41
2022-08-10T07:23:55.159Z,101927.31
2022-08-10T07:26:13.185Z,101921.94
2022-08-10T07:29:01.199Z,101921.22
2022-08-10T07:31:55.767Z,101919.41
2022-08-10T07:34:45.706Z,101921.41
2022-08-10T07:37:34.653Z,101911.78
2022-08-10T07:40:24.116Z,101923.19
2022-08-10T07:43:17.957Z,101925.41
2022-08-10T07:46:09.469Z,101922.72
2022-08-10T07:49:02.791Z,101920.34
2022-08-10T07:52:08.138Z,101928.13
2022-08-10T07:55:00.504Z,101919.88
2022-08-10T07:57:31.774Z,101926.63
2022-08-10T08:00:05.841Z,101922.81
2022-08-10T08:02:57.684Z,101922.56
2022-08-10T08:05:57.547Z,101916.88
2022-08-10T08:08:16.136Z,101926.63
2022-08-10T08:10:43.373Z,101919.09
2022-08-10T08:13:12.005Z,101927.84
2022-08-10T08:16:18.014Z,101908.75
2022-08-10T08:18:29.266Z,101920.94
2022-08-10T08:20:58.685Z,101918.00
2022-08-10T08:24:04.649Z,101891.28
2022-08-10T08:26:18.498Z,101907.63
2022-08-10T08:28:46.481Z,101902.69
2022-08-10T08:31:15.517Z,101896.75
2022-08-10T08:33:45.543Z,101892.53
2022-08-10T08:36:16.178Z,101843.91
2022-08-10T08:38:44.370Z,101896.09
2022-08-10T08:41:29.542Z,101898.41
2022-08-10T08:44:21.297Z,101912.34
2022-08-10T08:48:02.323Z,101903.94
2022-08-10T08:50:27.665Z,101888.88
2022-08-10T08:53:22.215Z,101906.72
2022-08-10T08:56:05.581Z,101903.50
2022-08-10T08:58:58.569Z,101907.53
2022-08-10T09:01:48.134Z,101908.00
2022-08-10T09:04:33.883Z,101896.75
2022-08-10T09:07:39.461Z,101897.22
2022-08-10T09:10:26.553Z,101900.41
2022-08-10T09:13:01.378Z,101895.47
2022-08-10T09:15:45.538Z,101900.50
2022-08-10T09:18:31.994Z,101898.13
2022-08-10T09:21:06.441Z,101890.66
2022-08-10T09:24:01.985Z,101866.06
2022-08-10T09:26:42.586Z,101879.47
2022-08-10T09:29:19.638Z,101878.91
2022-08-10T09:36:14.637Z,101858.34
2022-08-10T09:36:28.042Z,101876.13
2022-08-10T09:38:02.003Z,101865.84
2022-08-10T09:40:59.414Z,101853.50
2022-08-10T09:43:41.133Z,101857.28
2022-08-10T09:46:36.597Z,101867.88
2022-08-10T09:49:53.219Z,101860.56
2022-08-10T09:52:39.463Z,101868.72
2022-08-10T09:55:12.716Z,101874.16
2022-08-10T09:57:49.111Z,101883.03
2022-08-10T10:00:27.470Z,101868.31
2022-08-10T10:03:11.822Z,101870.78
2022-08-10T10:06:10.904Z,101860.16
2022-08-10T10:09:26.961Z,101865.53
2022-08-10T10:12:39.842Z,101844.72
2022-08-10T10:15:55.280Z,101876.28
2022-08-10T10:19:14.468Z,101878.59
2022-08-10T10:22:11.837Z,101881.31
2022-08-10T10:25:19.972Z,101886.75
2022-08-10T10:28:21.683Z,101887.75
2022-08-10T10:31:16.909Z,101880.59
2022-08-10T10:34:10.045Z,101886.16
2022-08-10T10:37:00.024Z,101863.81
2022-08-10T10:39:48.429Z,101880.84
2022-08-10T10:42:49.962Z,101889.84
2022-08-10T10:45:54.238Z,101893.72
2022-08-10T10:49:02.967Z,101892.16
2022-08-10T10:52:17.693Z,101862.03
2022-08-10T10:55:16.299Z,101891.59
2022-08-10T10:58:09.413Z,101891.44
2022-08-10T11:01:14.838Z,101895.88
2022-08-10T11:04:13.742Z,101896.47
2022-08-10T11:07:17.319Z,101897.03
2022-08-10T11:10:33.405Z,101903.81
2022-08-10T11:14:28.837Z,101895.50
2022-08-10T11:17:34.772Z,101892.66
2022-08-10T11:20:42.528Z,101890.75
2022-08-10T11:24:49.018Z,101898.81
2022-08-10T11:27:22.630Z,101901.53
2022-08-10T11:30:22.726Z,101840.56
2022-08-10T11:34:11.713Z,101898.94
2022-08-10T11:37:16.329Z,101903.38
2022-08-10T11:40:06.102Z,101905.09
2022-08-10T11:43:05.455Z,101895.69
2022-08-10T11:45:55.737Z,101898.81
2022-08-10T11:48:57.000Z,101852.28
2022-08-10T11:52:04.794Z,101847.72
2022-08-10T11:55:02.269Z,101875.81
2022-08-10T11:57:54.294Z,101870.09
2022-08-10T12:00:44.370Z,101861.91
2022-08-10T12:03:34.722Z,101860.06
2022-08-10T12:06:53.759Z,101859.78
2022-08-10T12:10:11.121Z,101864.78
2022-08-10T12:12:42.211Z,101853.91
2022-08-10T12:15:37.183Z,101861.81
2022-08-10T12:18:33.865Z,101858.09
2022-08-10T12:21:34.402Z,101860.81
2022-08-10T12:24:40.193Z,101847.19
2022-08-10T12:27:55.988Z,101860.78
2022-08-10T12:30:52.496Z,101797.91
2022-08-10T12:34:02.061Z,101851.75
2022-08-10T12:36:59.993Z,101856.19
2022-08-10T12:40:17.592Z,101848.59
2022-08-10T12:44:04.346Z,101857.00
2022-08-10T12:46:34.705Z,101850.53
2022-08-10T12:49:10.735Z,101860.41
2022-08-10T12:51:49.607Z,101857.50
2022-08-10T12:54:39.691Z,101843.97
2022-08-10T12:57:16.036Z,101861.25
2022-08-10T12:59:50.157Z,101851.22
2022-08-10T13:02:25.922Z,101849.72
2022-08-10T13:04:56.433Z,101855.09
2022-08-10T13:08:05.321Z,101823.94
2022-08-10T13:10:18.293Z,101861.34
2022-08-10T13:12:49.547Z,101867.31
2022-08-10T13:15:48.354Z,101863.28
2022-08-10T13:18:19.009Z,101873.28
2022-08-10T13:20:52.196Z,101868.25
2022-08-10T13:23:26.882Z,101877.63
2022-08-10T13:25:59.465Z,101865.28
2022-08-10T13:28:39.535Z,101867.56
2022-08-10T13:31:16.132Z,101863.50
2022-08-10T13:34:40.354Z,101846.91
2022-08-10T13:36:51.480Z,101857.84
2022-08-10T13:39:25.519Z,101855.69
2022-08-10T13:41:55.405Z,101846.81
2022-08-10T13:44:38.392Z,101781.56
2022-08-10T13:47:07.702Z,101844.25
2022-08-10T13:49:48.303Z,101848.81
2022-08-10T13:52:18.961Z,101839.09
2022-08-10T13:54:47.853Z,101840.78
2022-08-10T13:57:21.783Z,101850.91
2022-08-10T14:00:37.564Z,101851.03
2022-08-10T14:02:48.368Z,101841.06
2022-08-10T14:05:22.646Z,101855.63
2022-08-10T14:08:01.130Z,101857.47
2022-08-10T14:11:09.602Z,101840.66
2022-08-10T14:13:26.012Z,101861.19
2022-08-10T14:15:54.278Z,101864.03
2022-08-10T14:18:21.634Z,101854.13
2022-08-10T14:20:51.865Z,101861.56
2022-08-10T14:23:18.857Z,101855.53
2022-08-10T14:25:53.661Z,101848.00
2022-08-10T14:28:26.379Z,101834.97
2022-08-10T14:31:02.844Z,101850.47
2022-08-10T14:33:32.661Z,101844.78
2022-08-10T14:36:21.549Z,101848.19
2022-08-10T14:38:49.141Z,101834.63
2022-08-10T14:42:03.746Z,101840.41
2022-08-10T14:44:17.495Z,101847.88
2022-08-10T14:46:51.524Z,101842.94
2022-08-10T14:49:25.387Z,101849.66
2022-08-10T14:52:00.122Z,101839.41
2022-08-10T14:54:30.081Z,101838.41
2022-08-10T14:57:10.646Z,101841.81
2022-08-10T15:00:23.286Z,101825.56
2022-08-10T15:02:39.066Z,101840.56
2022-08-10T15:05:09.925Z,101850.03
2022-08-10T15:07:38.613Z,101844.47
2022-08-10T15:10:09.504Z,101813.94
2022-08-10T15:12:39.919Z,101837.03
2022-08-10T15:15:11.080Z,101841.50
2022-08-10T15:17:49.033Z,101831.47
2022-08-10T15:20:20.326Z,101829.47
2022-08-10T15:22:51.054Z,101821.47
2022-08-10T15:25:24.326Z,101767.00
2022-08-10T15:27:57.336Z,101810.63
2022-08-10T15:30:32.221Z,101814.59
2022-08-10T15:33:59.373Z,101822.88
2022-08-10T15:36:34.557Z,101818.56
2022-08-10T15:39:05.158Z,101793.88
2022-08-10T15:41:57.690Z,101807.84
2022-08-10T15:44:39.796Z,101790.63
2022-08-10T15:47:15.704Z,101801.56
2022-08-10T15:49:52.468Z,101807.97
2022-08-10T15:52:39.318Z,101811.84
2022-08-10T15:55:42.589Z,101787.91
2022-08-10T15:58:06.783Z,101800.47
2022-08-10T16:00:40.013Z,101738.59
2022-08-10T16:03:44.383Z,101764.72
2022-08-10T16:07:03.558Z,101787.59
2022-08-10T16:10:23.542Z,101758.41
2022-08-10T16:12:34.579Z,101783.00
2022-08-10T16:15:09.841Z,101779.59
2022-08-10T16:18:13.314Z,101775.72
2022-08-10T16:20:55.148Z,101757.09
2022-08-10T16:24:14.290Z,101773.16
2022-08-10T16:26:46.733Z,101774.03
2022-08-10T16:29:17.640Z,101761.84
2022-08-10T16:31:52.888Z,101752.56
2022-08-10T16:34:21.890Z,101750.88
2022-08-10T16:37:21.247Z,101750.19
2022-08-10T16:40:19.207Z,101741.16
2022-08-10T16:43:08.113Z,101749.31
2022-08-10T16:45:59.903Z,101737.22
2022-08-10T16:48:52.540Z,101736.19
2022-08-10T16:51:22.642Z,101703.94
2022-08-10T16:53:52.661Z,101717.16
2022-08-10T16:56:33.390Z,101693.38
2022-08-10T16:59:02.684Z,101731.06
2022-08-10T17:01:36.308Z,101728.34
2022-08-10T17:04:09.896Z,101731.91
2022-08-10T17:06:55.391Z,101728.34
2022-08-10T17:09:27.887Z,101723.06
2022-08-10T17:11:58.443Z,101719.47
2022-08-10T17:14:28.676Z,101722.31
2022-08-10T17:17:20.739Z,101712.88
2022-08-10T17:19:49.129Z,101725.00
2022-08-10T17:22:21.625Z,101720.25
2022-08-10T17:25:15.453Z,101719.25
2022-08-10T17:28:05.882Z,101728.25
2022-08-10T17:30:35.232Z,101724.63
2022-08-10T17:33:20.408Z,101701.41
2022-08-10T17:35:50.444Z,101717.81
2022-08-10T17:38:26.135Z,101717.91
2022-08-10T17:41:03.573Z,101725.88
2022-08-10T17:43:46.428Z,101731.25
2022-08-10T17:46:39.000Z,101726.50
2022-08-10T17:49:31.309Z,101718.28
2022-08-10T17:52:19.761Z,101704.81
2022-08-10T17:55:13.340Z,101706.63
2022-08-10T17:58:01.907Z,101712.38
2022-08-10T18:00:51.065Z,101716.88
2022-08-10T18:03:42.173Z,101723.88
2022-08-10T18:06:35.403Z,101708.94
2022-08-10T18:09:29.805Z,101695.44
2022-08-10T18:12:30.511Z,101680.59
2022-08-10T18:15:27.497Z,101675.47
2022-08-10T18:17:59.977Z,101692.22
2022-08-10T18:20:35.679Z,101687.94
2022-08-10T18:23:03.627Z,101700.59
2022-08-10T18:25:35.014Z,101697.69
2022-08-10T18:28:05.229Z,101706.44
2022-08-10T18:30:45.373Z,101693.75
2022-08-10T18:33:14.544Z,101711.09
2022-08-10T18:35:43.883Z,101685.16
2022-08-10T18:38:12.732Z,101706.94
2022-08-10T18:40:43.609Z,101689.72
2022-08-10T18:44:07.677Z,101703.25
2022-08-10T18:46:01.323Z,101694.88
2022-08-10T18:48:38.985Z,101646.38
2022-08-10T18:51:08.715Z,101691.81
2022-08-10T18:53:50.700Z,101686.84
2022-08-10T18:56:20.785Z,101698.53
2022-08-10T18:59:19.288Z,101693.72
2022-08-10T19:01:58.977Z,101693.44
2022-08-10T19:04:51.202Z,101665.13
2022-08-10T19:07:30.504Z,101706.31
2022-08-10T19:10:12.520Z,101702.47
2022-08-10T19:12:48.353Z,101710.19
2022-08-10T19:15:27.996Z,101714.34
2022-08-10T19:18:12.349Z,101681.94
2022-08-10T19:20:51.475Z,101706.44
2022-08-10T19:23:37.873Z,101695.78
2022-08-10T19:26:44.445Z,101699.91
2022-08-10T19:30:08.442Z,101699.13
2022-08-10T19:32:36.277Z,101699.50
2022-08-10T19:35:21.324Z,101684.63
2022-08-10T19:38:04.254Z,101678.38
2022-08-10T19:40:46.476Z,101680.09
2022-08-10T19:44:00.217Z,101615.31
2022-08-10T19:46:40.927Z,101678.31
2022-08-10T19:49:27.980Z,101676.72
2022-08-10T19:52:11.008Z,101659.25
2022-08-10T19:55:15.113Z,101660.22
2022-08-10T19:58:02.797Z,101630.06
2022-08-10T20:00:40.839Z,101630.91
2022-08-10T20:03:25.730Z,101650.88
2022-08-10T20:06:20.638Z,101650.97
2022-08-10T20:08:56.756Z,101643.13
2022-08-10T20:11:46.426Z,101635.25
2022-08-10T20:14:29.092Z,101625.53
2022-08-10T20:17:02.679Z,101595.97
2022-08-10T20:19:52.840Z,101625.13
2022-08-10T20:22:29.457Z,101619.97
2022-08-10T20:25:17.648Z,101619.31
2022-08-10T20:28:00.615Z,101565.91
2022-08-10T20:30:32.631Z,101556.31
2022-08-10T20:33:03.516Z,101611.56
2022-08-10T20:35:53.816Z,101609.00
2022-08-10T20:38:47.403Z,101603.72
2022-08-10T20:41:58.313Z,101583.44
2022-08-10T20:44:49.728Z,101597.78
2022-08-10T20:47:20.125Z,101592.50
2022-08-10T20:49:55.884Z,101590.03
2022-08-10T20:52:25.282Z,101586.59
2022-08-10T20:55:02.182Z,101586.69
2022-08-10T20:57:56.704Z,101578.72
2022-08-10T21:00:47.986Z,101530.81
2022-08-10T21:03:51.426Z,101574.66
2022-08-10T21:06:44.069Z,101567.66
2022-08-10T21:09:23.205Z,101569.56
2022-08-10T21:12:00.554Z,101564.16
2022-08-10T21:14:47.813Z,101568.69
2022-08-10T21:17:39.997Z,101556.31
2022-08-10T21:20:30.855Z,101545.63
2022-08-10T21:23:05.082Z,101542.19
2022-08-10T21:26:08.165Z,101544.16
2022-08-10T21:29:01.486Z,101538.00
2022-08-10T21:31:44.621Z,101532.72
2022-08-10T21:34:31.820Z,101532.94
2022-08-10T21:37:17.725Z,101518.19
2022-08-10T21:39:57.561Z,101521.63
2022-08-10T21:43:04.046Z,101515.38
2022-08-10T21:46:12.485Z,101503.34
2022-08-10T21:49:16.599Z,101506.69
2022-08-10T21:52:53.855Z,101497.94
2022-08-10T21:55:58.675Z,101499.78
2022-08-10T21:59:05.047Z,101456.97
2022-08-10T22:01:57.564Z,101500.00
2022-08-10T22:04:45.846Z,101500.09
2022-08-10T22:07:36.564Z,101495.69
2022-08-10T22:10:25.745Z,101490.44
2022-08-10T22:13:13.465Z,101481.47
2022-08-10T22:16:11.440Z,101480.63
2022-08-10T22:19:03.694Z,101466.28
2022-08-10T22:21:52.208Z,101460.78
2022-08-10T22:25:17.440Z,101457.22
2022-08-10T22:28:17.476Z,101458.09
2022-08-10T22:31:32.276Z,101450.00
2022-08-10T22:34:43.318Z,101447.44
2022-08-10T22:38:08.138Z,101448.31
2022-08-10T22:40:54.336Z,101442.03
2022-08-10T22:43:49.181Z,101437.63
2022-08-10T22:46:39.095Z,101437.00
2022-08-10T22:49:06.564Z,101437.63
2022-08-10T22:51:51.990Z,101441.16
2022-08-10T22:54:53.203Z,101434.06
2022-08-10T22:57:44.453Z,101403.72
2022-08-10T23:00:18.361Z,101404.78
2022-08-10T23:02:53.592Z,101412.63
2022-08-10T23:05:31.252Z,101365.00
2022-08-10T23:08:30.487Z,101342.41
2022-08-10T23:11:04.713Z,101386.56
2022-08-10T23:13:36.074Z,101374.50
2022-08-10T23:16:24.745Z,101382.03
2022-08-10T23:19:11.246Z,101372.00
2022-08-10T23:22:01.251Z,101369.31
2022-08-10T23:24:33.317Z,101365.75
2022-08-10T23:27:12.439Z,101357.66
2022-08-10T23:30:10.133Z,101361.22
2022-08-10T23:32:42.254Z,101357.53
2022-08-10T23:36:30.965Z,101354.00
2022-08-10T23:38:06.824Z,101360.25
2022-08-10T23:40:35.442Z,101358.66
2022-08-10T23:43:04.903Z,101349.22
2022-08-10T23:45:53.934Z,101347.53
2022-08-10T23:48:25.063Z,101347.19
2022-08-10T23:50:58.590Z,101342.66
2022-08-10T23:53:35.428Z,101348.88
2022-08-10T23:56:12.933Z,101343.38
2022-08-10T23:58:45.571Z,101325.63
